createdAt,value
2023-05-05T00:01:05.867Z,21.16
2023-05-05T00:03:32.258Z,21.16
2023-05-05T00:05:58.704Z,21.16
2023-05-05T00:08:25.157Z,21.17
2023-05-05T00:10:51.553Z,21.16
2023-05-05T00:13:17.958Z,21.10
2023-05-05T00:15:44.396Z,21.01
2023-05-05T00:18:10.829Z,20.98
2023-05-05T00:20:37.302Z,21.02
2023-05-05T00:23:03.795Z,21.03
2023-05-05T00:25:30.237Z,20.66
2023-05-05T00:27:56.613Z,20.70
2023-05-05T00:30:28.516Z,20.66
2023-05-05T00:32:55.520Z,20.75
2023-05-05T00:35:21.949Z,20.71
2023-05-05T00:37:48.341Z,20.68
2023-05-05T00:40:14.721Z,20.66
2023-05-05T00:42:41.202Z,20.63
2023-05-05T00:45:07.677Z,20.66
2023-05-05T00:47:46.443Z,20.62
2023-05-05T00:50:12.866Z,20.38
2023-05-05T00:52:39.345Z,20.31
2023-05-05T00:55:05.939Z,20.34
2023-05-05T00:57:34.063Z,20.37
2023-05-05T01:00:00.483Z,20.45
2023-05-05T01:05:17.829Z,20.20
2023-05-05T01:07:44.248Z,19.97
2023-05-05T01:10:19.725Z,19.64
2023-05-05T01:12:46.958Z,19.96
2023-05-05T01:15:14.150Z,20.15
2023-05-05T01:17:40.693Z,20.17
2023-05-05T01:20:07.448Z,20.17
2023-05-05T01:22:34.076Z,20.16
2023-05-05T01:25:00.502Z,20.16
2023-05-05T01:30:11.146Z,20.30
2023-05-05T01:32:37.664Z,20.35
2023-05-05T01:35:04.231Z,20.37
2023-05-05T01:37:30.748Z,20.39
2023-05-05T01:39:57.221Z,20.32
2023-05-05T01:42:23.612Z,20.34
2023-05-05T01:44:50.049Z,20.36
2023-05-05T01:47:16.524Z,20.30
2023-05-05T01:49:43.029Z,20.32
2023-05-05T01:52:10.214Z,20.26
2023-05-05T01:54:40.633Z,20.21
2023-05-05T01:57:07.169Z,20.18
2023-05-05T01:59:33.598Z,20.17
2023-05-05T02:02:20.516Z,20.08
2023-05-05T02:04:47.056Z,20.05
2023-05-05T02:07:13.512Z,20.00
2023-05-05T02:09:40.835Z,19.98
2023-05-05T02:12:07.388Z,19.94
2023-05-05T02:14:33.836Z,19.90
2023-05-05T02:17:00.382Z,19.91
2023-05-05T02:19:26.912Z,19.87
2023-05-05T02:21:53.449Z,19.88
2023-05-05T02:24:20.588Z,19.88
2023-05-05T02:26:47.021Z,19.87
2023-05-05T02:32:03.406Z,19.82
2023-05-05T02:34:29.777Z,19.79
2023-05-05T02:36:56.151Z,19.75
2023-05-05T02:39:23.717Z,19.71
2023-05-05T02:41:50.154Z,19.67
2023-05-05T02:44:16.557Z,19.69
2023-05-05T02:46:43.101Z,19.66
2023-05-05T02:49:09.617Z,19.64
2023-05-05T02:51:36.006Z,19.57
2023-05-05T02:54:02.438Z,19.51
2023-05-05T02:56:28.835Z,19.52
2023-05-05T02:58:55.340Z,19.49
2023-05-05T03:01:21.797Z,19.51
2023-05-05T03:03:48.391Z,19.49
2023-05-05T03:08:55.327Z,19.38
2023-05-05T03:11:21.750Z,19.41
2023-05-05T03:13:48.238Z,19.45
2023-05-05T03:16:16.066Z,19.45
2023-05-05T03:18:42.526Z,19.42
2023-05-05T03:21:09.025Z,19.38
2023-05-05T03:26:19.677Z,19.43
2023-05-05T03:28:46.393Z,19.41
2023-05-05T03:31:12.899Z,19.42
2023-05-05T03:33:42.510Z,19.32
2023-05-05T03:36:09.960Z,19.02
2023-05-05T03:38:36.412Z,19.00
2023-05-05T03:41:07.181Z,19.07
2023-05-05T03:43:33.826Z,19.07
2023-05-05T03:46:14.477Z,18.80
2023-05-05T03:48:40.988Z,18.94
2023-05-05T03:51:07.409Z,18.92
2023-05-05T03:53:33.890Z,18.81
2023-05-05T03:56:00.500Z,18.92
2023-05-05T03:58:27.373Z,18.96
2023-05-05T04:00:55.521Z,18.94
2023-05-05T04:03:22.107Z,18.97
2023-05-05T04:05:49.750Z,19.00
2023-05-05T04:08:16.180Z,19.05
2023-05-05T04:10:42.678Z,18.90
2023-05-05T04:13:09.216Z,18.86
2023-05-05T04:15:35.781Z,18.92
2023-05-05T04:18:02.363Z,18.89
2023-05-05T04:20:28.884Z,18.72
2023-05-05T04:22:55.325Z,18.64
2023-05-05T04:25:21.798Z,18.61
2023-05-05T04:27:48.215Z,18.32
2023-05-05T04:30:14.596Z,18.12
2023-05-05T04:32:42.169Z,18.26
2023-05-05T04:35:27.992Z,18.48
2023-05-05T04:37:54.467Z,18.55
2023-05-05T04:40:23.803Z,18.70
2023-05-05T04:42:50.304Z,18.73
2023-05-05T04:45:16.872Z,18.52
2023-05-05T04:47:47.359Z,18.69
2023-05-05T04:50:13.801Z,18.74
2023-05-05T04:52:40.220Z,18.75
2023-05-05T04:55:06.785Z,18.77
2023-05-05T04:57:33.184Z,18.76
2023-05-05T04:59:59.732Z,18.80
2023-05-05T05:02:26.205Z,18.84
2023-05-05T05:04:53.651Z,18.90
2023-05-05T05:07:20.113Z,18.93
2023-05-05T05:09:46.556Z,18.98
2023-05-05T05:12:13.024Z,18.99
2023-05-05T05:14:39.563Z,19.01
2023-05-05T05:17:06.060Z,18.99
2023-05-05T05:19:32.728Z,18.98
2023-05-05T05:21:59.111Z,19.00
2023-05-05T05:24:25.546Z,19.03
2023-05-05T05:26:52.034Z,19.07
2023-05-05T05:29:18.569Z,19.09
2023-05-05T05:31:45.093Z,19.03
2023-05-05T05:34:12.894Z,19.02
2023-05-05T05:36:39.529Z,19.04
2023-05-05T05:39:05.959Z,19.08
2023-05-05T05:41:32.371Z,19.05
2023-05-05T05:43:58.802Z,19.07
2023-05-05T05:46:25.326Z,19.07
2023-05-05T05:48:51.817Z,19.11
2023-05-05T05:51:18.206Z,19.17
2023-05-05T05:53:44.743Z,19.21
2023-05-05T05:56:11.165Z,19.20
2023-05-05T05:58:37.675Z,19.20
2023-05-05T06:01:04.080Z,19.20
2023-05-05T06:03:30.768Z,19.21
2023-05-05T06:05:57.241Z,19.23
2023-05-05T06:08:25.057Z,19.26
2023-05-05T06:10:51.648Z,19.28
2023-05-05T06:13:18.143Z,19.34
2023-05-05T06:15:44.762Z,19.36
2023-05-05T06:18:14.156Z,19.34
2023-05-05T06:20:40.699Z,19.32
2023-05-05T06:23:07.222Z,19.33
2023-05-05T06:25:33.838Z,19.31
2023-05-05T06:28:00.327Z,19.24
2023-05-05T06:33:15.932Z,19.26
2023-05-05T06:35:42.385Z,19.29
2023-05-05T06:38:08.910Z,19.31
2023-05-05T06:40:35.334Z,19.31
2023-05-05T06:43:01.767Z,19.31
2023-05-05T06:45:28.222Z,19.35
2023-05-05T06:47:54.731Z,19.35
2023-05-05T06:50:21.155Z,19.37
2023-05-05T06:53:02.905Z,19.23
2023-05-05T06:55:29.395Z,19.18
2023-05-05T06:57:55.741Z,19.23
2023-05-05T07:00:24.720Z,19.34
2023-05-05T07:02:51.242Z,19.31
2023-05-05T07:05:20.718Z,19.37
2023-05-05T07:07:48.314Z,19.38
2023-05-05T07:10:14.745Z,19.45
2023-05-05T07:12:48.443Z,19.54
2023-05-05T07:15:26.825Z,19.63
2023-05-05T07:17:55.473Z,19.60
2023-05-05T07:20:21.975Z,19.65
2023-05-05T07:22:48.460Z,19.82
2023-05-05T07:25:14.987Z,19.90
2023-05-05T07:27:41.428Z,19.78
2023-05-05T07:30:12.283Z,19.79
2023-05-05T07:32:40.689Z,19.84
2023-05-05T07:35:07.198Z,20.02
2023-05-05T07:37:33.661Z,20.09
2023-05-05T07:40:06.327Z,20.15
2023-05-05T07:42:33.035Z,20.13
2023-05-05T07:47:50.660Z,20.21
2023-05-05T07:50:17.207Z,20.28
2023-05-05T07:52:50.059Z,20.23
2023-05-05T07:55:23.679Z,20.33
2023-05-05T07:57:50.080Z,20.28
2023-05-05T08:00:16.589Z,20.35
2023-05-05T08:02:42.980Z,20.45
2023-05-05T08:05:16.831Z,20.43
2023-05-05T08:07:47.110Z,20.33
2023-05-05T08:10:13.623Z,20.28
2023-05-05T08:12:40.176Z,20.23
2023-05-05T08:15:07.187Z,20.12
2023-05-05T08:17:33.938Z,19.94
2023-05-05T08:20:00.387Z,19.87
2023-05-05T08:22:27.450Z,19.78
2023-05-05T08:25:09.808Z,19.73
2023-05-05T08:27:36.383Z,19.70
2023-05-05T08:30:02.952Z,19.50
2023-05-05T08:32:29.905Z,19.43
2023-05-05T08:34:56.386Z,19.29
2023-05-05T08:37:26.128Z,19.06
2023-05-05T08:39:52.691Z,19.20
2023-05-05T08:42:32.712Z,19.32
2023-05-05T08:45:05.859Z,19.41
2023-05-05T08:47:32.657Z,19.45
2023-05-05T08:49:59.181Z,19.39
2023-05-05T08:52:25.654Z,19.31
2023-05-05T08:54:52.125Z,19.32
2023-05-05T08:57:18.567Z,19.30
2023-05-05T08:59:45.050Z,19.33
2023-05-05T09:02:11.595Z,19.33
2023-05-05T09:04:38.104Z,19.37
2023-05-05T09:07:04.582Z,19.43
2023-05-05T09:09:31.058Z,19.48
2023-05-05T09:11:57.464Z,19.46
2023-05-05T09:14:23.949Z,19.47
2023-05-05T09:16:50.526Z,19.45
2023-05-05T09:19:16.957Z,19.51
2023-05-05T09:21:43.401Z,19.51
2023-05-05T09:24:09.937Z,19.58
2023-05-05T09:26:36.373Z,19.69
2023-05-05T09:29:02.783Z,19.82
2023-05-05T09:34:09.650Z,19.99
2023-05-05T09:36:43.539Z,19.96
2023-05-05T09:39:09.983Z,19.91
2023-05-05T09:41:36.405Z,19.91
2023-05-05T09:44:02.926Z,19.90
2023-05-05T09:46:29.599Z,19.94
2023-05-05T09:48:56.103Z,20.07
2023-05-05T09:51:22.546Z,20.10
2023-05-05T09:53:49.063Z,20.10
2023-05-05T09:56:15.557Z,19.90
2023-05-05T09:58:42.105Z,19.74
2023-05-05T10:01:08.721Z,19.74
2023-05-05T10:03:35.224Z,19.67
2023-05-05T10:06:01.708Z,19.70
2023-05-05T10:08:28.204Z,19.71
2023-05-05T10:10:54.654Z,19.70
2023-05-05T10:13:21.138Z,19.74
2023-05-05T10:15:47.691Z,19.76
2023-05-05T10:18:14.378Z,19.78
2023-05-05T10:20:40.998Z,19.85
2023-05-05T10:23:07.509Z,19.89
2023-05-05T10:25:34.069Z,19.94
2023-05-05T10:28:00.612Z,20.01
2023-05-05T10:30:27.086Z,20.08
2023-05-05T10:35:33.746Z,20.21
2023-05-05T10:38:00.198Z,20.27
2023-05-05T10:40:26.570Z,20.25
2023-05-05T10:42:54.070Z,20.25
2023-05-05T10:45:20.678Z,20.28
2023-05-05T10:47:47.242Z,20.30
2023-05-05T10:50:13.751Z,20.23
2023-05-05T10:55:30.872Z,20.10
2023-05-05T10:57:57.317Z,20.09
2023-05-05T11:00:23.789Z,20.05
2023-05-05T11:02:50.879Z,20.02
2023-05-05T11:07:57.657Z,20.28
2023-05-05T11:10:24.179Z,20.34
2023-05-05T11:12:50.829Z,20.37
2023-05-05T11:15:17.366Z,20.43
2023-05-05T11:20:24.085Z,20.52
2023-05-05T11:22:50.438Z,20.53
2023-05-05T11:25:16.790Z,20.47
2023-05-05T11:27:43.144Z,20.59
2023-05-05T11:30:09.857Z,20.66
2023-05-05T11:32:44.048Z,20.74
2023-05-05T11:35:10.937Z,20.83
2023-05-05T11:37:37.832Z,20.97
2023-05-05T11:40:04.295Z,21.14
2023-05-05T11:42:30.668Z,21.20
2023-05-05T11:44:57.061Z,21.28
2023-05-05T11:47:23.415Z,21.45
2023-05-05T11:49:49.807Z,21.42
2023-05-05T11:52:16.146Z,21.57
2023-05-05T11:54:45.230Z,21.66
2023-05-05T11:57:11.589Z,21.75
2023-05-05T11:59:40.953Z,21.77
2023-05-05T12:02:07.309Z,21.86
2023-05-05T12:04:33.770Z,21.96
2023-05-05T12:07:00.296Z,22.04
2023-05-05T12:09:26.692Z,22.07
2023-05-05T12:11:53.036Z,22.07
2023-05-05T12:14:19.388Z,22.10
2023-05-05T12:16:45.819Z,22.11
2023-05-05T12:19:12.359Z,22.09
2023-05-05T12:21:38.739Z,22.13
2023-05-05T12:24:05.091Z,22.07
2023-05-05T12:26:31.505Z,22.08
2023-05-05T12:28:57.988Z,22.09
2023-05-05T12:31:24.358Z,22.06
2023-05-05T12:33:50.752Z,21.95
2023-05-05T12:36:17.153Z,21.95
2023-05-05T12:38:43.591Z,21.94
2023-05-05T12:41:09.950Z,21.99
2023-05-05T12:43:38.742Z,21.96
2023-05-05T12:51:36.271Z,21.96
2023-05-05T12:54:03.009Z,22.04
2023-05-05T12:56:29.415Z,22.18
2023-05-05T12:58:55.860Z,22.29
2023-05-05T13:01:22.302Z,22.30
2023-05-05T13:03:48.703Z,22.36
2023-05-05T13:06:15.070Z,22.33
2023-05-05T13:08:41.788Z,22.23
2023-05-05T13:11:08.266Z,22.27
2023-05-05T13:13:35.725Z,22.35
2023-05-05T13:16:02.121Z,22.33
2023-05-05T13:18:28.529Z,22.28
2023-05-05T13:23:35.350Z,22.34
2023-05-05T13:26:01.758Z,22.30
2023-05-05T13:28:30.323Z,22.39
2023-05-05T13:30:56.756Z,22.50
2023-05-05T13:33:23.241Z,22.53
2023-05-05T13:35:49.678Z,22.65
2023-05-05T13:38:16.034Z,22.70
2023-05-05T13:40:42.433Z,22.73
2023-05-05T13:43:09.893Z,22.65
2023-05-05T13:45:36.294Z,22.76
2023-05-05T13:48:03.840Z,22.78
2023-05-05T13:50:31.066Z,22.89
2023-05-05T13:52:57.619Z,22.91
2023-05-05T13:55:24.147Z,22.91
2023-05-05T13:57:50.569Z,23.03
2023-05-05T14:00:17.028Z,23.12
2023-05-05T14:02:44.714Z,23.20
2023-05-05T14:05:11.210Z,23.34
2023-05-05T14:07:37.605Z,23.39
2023-05-05T14:10:03.992Z,23.44
2023-05-05T14:12:30.370Z,23.46
2023-05-05T14:14:56.885Z,23.40
2023-05-05T14:17:23.315Z,23.41
2023-05-05T14:19:49.714Z,23.59
2023-05-05T14:22:16.157Z,23.69
2023-05-05T14:24:42.556Z,23.72
2023-05-05T14:27:08.912Z,23.56
2023-05-05T14:29:35.318Z,23.48
2023-05-05T14:32:01.714Z,23.56
2023-05-05T14:34:34.214Z,23.65
2023-05-05T14:37:00.587Z,23.75
2023-05-05T14:39:28.586Z,23.84
2023-05-05T14:41:55.030Z,23.95
2023-05-05T14:44:21.404Z,23.94
2023-05-05T14:46:49.094Z,24.06
2023-05-05T14:49:19.760Z,24.07
2023-05-05T14:51:46.095Z,24.23
2023-05-05T14:54:26.877Z,24.29
2023-05-05T14:56:54.135Z,24.24
2023-05-05T14:59:21.954Z,24.28
2023-05-05T15:01:48.420Z,24.33
2023-05-05T15:04:14.832Z,24.43
2023-05-05T15:06:41.567Z,24.48
2023-05-05T15:11:54.461Z,24.34
2023-05-05T15:14:20.892Z,24.33
2023-05-05T15:16:47.293Z,24.52
2023-05-05T15:19:13.660Z,24.60
2023-05-05T15:21:42.665Z,24.59
2023-05-05T15:24:09.074Z,24.53
2023-05-05T15:26:37.641Z,24.65
2023-05-05T15:29:06.407Z,24.72
2023-05-05T15:31:32.789Z,24.79
2023-05-05T15:36:49.615Z,25.04
2023-05-05T15:39:17.021Z,25.07
2023-05-05T15:41:43.569Z,25.21
2023-05-05T15:44:09.960Z,25.22
2023-05-05T15:46:36.288Z,25.36
2023-05-05T15:49:02.687Z,25.31
2023-05-05T15:51:29.034Z,25.51
2023-05-05T15:53:55.593Z,25.59
2023-05-05T15:56:22.021Z,26.09
2023-05-05T15:58:48.423Z,27.02
2023-05-05T16:01:14.930Z,27.85
2023-05-05T16:03:42.418Z,28.75
2023-05-05T16:06:08.853Z,29.74
2023-05-05T16:08:35.234Z,30.01
2023-05-05T16:11:01.598Z,30.27
2023-05-05T16:13:27.985Z,30.61
2023-05-05T16:15:54.460Z,30.49
2023-05-05T16:18:20.839Z,30.41
2023-05-05T16:20:47.236Z,29.39
2023-05-05T16:23:14.790Z,28.73
2023-05-05T16:25:41.173Z,28.20
2023-05-05T16:28:07.619Z,27.58
2023-05-05T16:30:34.034Z,27.54
2023-05-05T16:33:00.456Z,27.73
2023-05-05T16:35:26.882Z,27.16
2023-05-05T16:37:53.250Z,27.36
2023-05-05T16:40:19.618Z,27.93
2023-05-05T16:42:46.293Z,27.99
2023-05-05T16:45:12.758Z,28.35
2023-05-05T16:47:39.221Z,28.43
2023-05-05T16:50:05.627Z,28.74
2023-05-05T16:52:32.753Z,29.01
2023-05-05T16:55:00.928Z,28.38
2023-05-05T16:57:32.505Z,27.90
2023-05-05T17:00:00.410Z,27.44
2023-05-05T17:02:26.781Z,27.16
2023-05-05T17:04:53.234Z,26.83
2023-05-05T17:07:19.748Z,26.66
2023-05-05T17:09:46.254Z,26.40
2023-05-05T17:12:12.674Z,25.98
2023-05-05T17:14:39.199Z,26.13
2023-05-05T17:17:07.962Z,26.22
2023-05-05T17:19:34.354Z,26.28
2023-05-05T17:24:41.183Z,25.87
2023-05-05T17:27:07.686Z,25.90
2023-05-05T17:29:34.182Z,25.83
2023-05-05T17:32:00.750Z,25.88
2023-05-05T17:34:27.817Z,25.94
2023-05-05T17:36:54.223Z,25.86
2023-05-05T17:39:26.881Z,25.64
2023-05-05T17:41:53.354Z,25.33
2023-05-05T17:44:19.818Z,25.38
2023-05-05T17:46:46.272Z,25.69
2023-05-05T17:49:12.651Z,25.82
2023-05-05T17:51:40.518Z,25.95
2023-05-05T17:54:06.908Z,25.38
2023-05-05T17:56:33.335Z,25.39
2023-05-05T17:58:59.851Z,25.34
2023-05-05T18:01:26.323Z,25.28
2023-05-05T18:04:11.464Z,25.22
2023-05-05T18:06:37.820Z,24.98
2023-05-05T18:09:07.789Z,24.99
2023-05-05T18:11:35.582Z,24.96
2023-05-05T18:14:01.981Z,24.95
2023-05-05T18:16:28.348Z,24.97
2023-05-05T18:18:54.945Z,25.01
2023-05-05T18:29:19.057Z,24.81
2023-05-05T18:31:45.724Z,24.73
2023-05-05T18:37:02.416Z,24.57
2023-05-05T18:39:28.915Z,24.46
2023-05-05T18:41:55.497Z,24.43
2023-05-05T18:44:22.018Z,24.34
2023-05-05T18:46:48.589Z,24.27
2023-05-05T18:49:15.183Z,24.21
2023-05-05T18:54:26.881Z,24.25
2023-05-05T18:56:53.284Z,24.22
2023-05-05T18:59:21.329Z,24.32
2023-05-05T19:01:51.428Z,24.23
2023-05-05T19:04:30.140Z,24.17
2023-05-05T19:06:57.558Z,24.17
2023-05-05T19:09:24.191Z,24.16
2023-05-05T19:11:50.711Z,24.15
2023-05-05T19:14:17.111Z,24.16
2023-05-05T19:16:43.491Z,24.22
2023-05-05T19:19:09.868Z,24.14
2023-05-05T19:21:36.531Z,24.09
2023-05-05T19:24:02.889Z,24.01
2023-05-05T19:29:14.441Z,23.88
2023-05-05T19:31:41.046Z,23.87
2023-05-05T19:34:07.649Z,23.75
2023-05-05T19:36:40.949Z,23.79
2023-05-05T19:39:07.588Z,23.87
2023-05-05T19:41:34.089Z,23.91
2023-05-05T19:44:00.737Z,23.94
2023-05-05T19:46:27.269Z,23.92
2023-05-05T19:48:53.835Z,23.85
2023-05-05T19:51:20.308Z,23.84
2023-05-05T19:53:46.872Z,23.80
2023-05-05T19:56:19.556Z,23.74
2023-05-05T19:58:46.167Z,23.75
2023-05-05T20:01:29.056Z,23.72
2023-05-05T20:03:59.606Z,23.72
2023-05-05T20:06:29.491Z,23.73
2023-05-05T20:08:55.993Z,23.69
2023-05-05T20:11:22.467Z,23.70
2023-05-05T20:13:48.924Z,23.67
2023-05-05T20:16:16.938Z,23.67
2023-05-05T20:18:43.365Z,23.65
2023-05-05T20:21:09.815Z,23.62
2023-05-05T20:23:36.316Z,23.63
2023-05-05T20:26:02.704Z,23.53
2023-05-05T20:28:29.288Z,23.56
2023-05-05T20:30:55.795Z,23.58
2023-05-05T20:33:22.266Z,23.61
2023-05-05T20:35:48.775Z,23.61
2023-05-05T20:38:15.260Z,23.60
2023-05-05T20:40:41.708Z,23.61
2023-05-05T20:43:08.189Z,23.53
2023-05-05T20:45:34.640Z,23.49
2023-05-05T20:48:01.150Z,23.47
2023-05-05T20:50:27.673Z,23.41
2023-05-05T20:52:54.208Z,23.39
2023-05-05T20:55:20.694Z,23.36
2023-05-05T20:57:47.306Z,23.32
2023-05-05T21:00:13.726Z,23.23
2023-05-05T21:02:40.311Z,23.11
2023-05-05T21:05:07.045Z,23.03
2023-05-05T21:10:13.828Z,22.98
2023-05-05T21:12:40.325Z,22.99
2023-05-05T21:15:07.029Z,22.93
2023-05-05T21:17:33.870Z,22.87
2023-05-05T21:20:00.474Z,22.78
2023-05-05T21:22:27.021Z,22.69
2023-05-05T21:24:53.596Z,22.64
2023-05-05T21:27:20.053Z,22.55
2023-05-05T21:29:46.526Z,22.51
2023-05-05T21:32:13.029Z,22.49
2023-05-05T21:34:39.724Z,22.46
2023-05-05T21:37:06.205Z,22.43
2023-05-05T21:39:32.675Z,22.48
2023-05-05T21:41:59.085Z,22.52
2023-05-05T21:44:25.680Z,22.54
2023-05-05T21:46:52.232Z,22.59
2023-05-05T21:49:18.709Z,22.59
2023-05-05T21:51:45.240Z,22.58
2023-05-05T21:54:11.678Z,22.60
2023-05-05T21:59:18.464Z,22.52
2023-05-05T22:01:44.978Z,22.53
2023-05-05T22:04:11.476Z,22.47
2023-05-05T22:06:38.947Z,22.46
2023-05-05T22:09:05.455Z,22.52
2023-05-05T22:11:31.929Z,22.48
2023-05-05T22:13:58.391Z,22.51
2023-05-05T22:16:24.948Z,22.52
2023-05-05T22:18:51.521Z,22.57
2023-05-05T22:21:17.929Z,22.54
2023-05-05T22:23:44.395Z,22.56
2023-05-05T22:26:10.935Z,22.63
2023-05-05T22:28:37.454Z,22.65
2023-05-05T22:31:04.011Z,22.68
2023-05-05T22:33:30.486Z,22.65
2023-05-05T22:35:56.953Z,22.57
2023-05-05T22:38:23.486Z,22.51
2023-05-05T22:40:50.107Z,22.52
2023-05-05T22:43:25.177Z,22.52
2023-05-05T22:45:51.682Z,22.47
2023-05-05T22:48:18.220Z,22.44
2023-05-05T22:50:44.733Z,22.44
2023-05-05T22:53:11.179Z,22.45
2023-05-05T22:55:37.658Z,22.46
2023-05-05T22:58:04.167Z,22.47
2023-05-05T23:00:30.806Z,22.45
2023-05-05T23:02:57.299Z,22.44
2023-05-05T23:05:24.078Z,22.42
2023-05-05T23:07:52.606Z,22.39
2023-05-05T23:10:19.145Z,22.37
2023-05-05T23:12:45.714Z,22.35
2023-05-05T23:17:52.558Z,22.29
2023-05-05T23:20:19.121Z,22.25
2023-05-05T23:22:45.623Z,22.25
2023-05-05T23:25:12.333Z,22.22
2023-05-05T23:27:39.516Z,22.19
2023-05-05T23:30:08.176Z,22.14
2023-05-05T23:32:34.682Z,22.08
2023-05-05T23:35:01.234Z,22.07
2023-05-05T23:37:28.136Z,21.99
2023-05-05T23:39:54.761Z,21.98
2023-05-05T23:42:21.280Z,21.99
2023-05-05T23:44:47.754Z,21.97
2023-05-05T23:47:14.240Z,21.89
2023-05-05T23:49:49.384Z,21.90
2023-05-05T23:52:15.904Z,21.98
2023-05-05T23:54:42.436Z,21.99
2023-05-05T23:57:09.304Z,21.95
2023-05-05T23:59:35.901Z,21.95
